sensor_id;sensor_type;location;lat;lon;timestamp;pressure;altitude;pressure_sealevel;temperature;humidity
39141;BME280;24875;48.436;10.298;2022-12-07T00:01:34;96234.19;;;3.84;100.00
39141;BME280;24875;48.436;10.298;2022-12-07T00:04:03;96237.50;;;3.96;100.00
39141;BME280;24875;48.436;10.298;2022-12-07T00:06:30;96236.13;;;3.82;100.00
39141;BME280;24875;48.436;10.298;2022-12-07T00:08:57;96229.00;;;3.84;100.00
39141;BME280;24875;48.436;10.298;2022-12-07T00:11:24;96227.50;;;3.91;100.00
39141;BME280;24875;48.436;10.298;2022-12-07T00:13:51;96232.16;;;3.97;100.00
39141;BME280;24875;48.436;10.298;2022-12-07T00:16:19;96232.44;;;3.94;100.00
39141;BME280;24875;48.436;10.298;2022-12-07T00:18:46;96225.72;;;3.82;100.00
39141;BME280;24875;48.436;10.298;2022-12-07T00:21:16;96227.91;;;3.96;100.00
39141;BME280;24875;48.436;10.298;2022-12-07T00:23:44;96222.28;;;3.91;100.00
39141;BME280;24875;48.436;10.298;2022-12-07T00:26:12;96219.41;;;3.85;100.00
39141;BME280;24875;48.436;10.298;2022-12-07T00:28:39;96227.63;;;3.80;100.00
39141;BME280;24875;48.436;10.298;2022-12-07T00:31:07;96222.94;;;3.93;100.00
39141;BME280;24875;48.436;10.298;2022-12-07T00:33:34;96227.63;;;3.90;100.00
39141;BME280;24875;48.436;10.298;2022-12-07T00:36:03;96224.75;;;3.83;100.00
39141;BME280;24875;48.436;10.298;2022-12-07T00:38:33;96222.28;;;3.82;100.00
39141;BME280;24875;48.436;10.298;2022-12-07T00:41:01;96228.56;;;3.70;100.00
39141;BME280;24875;48.436;10.298;2022-12-07T00:43:28;96226.41;;;3.65;100.00
39141;BME280;24875;48.436;10.298;2022-12-07T00:45:56;96226.38;;;3.75;100.00
39141;BME280;24875;48.436;10.298;2022-12-07T00:48:23;96224.88;;;3.72;100.00
39141;BME280;24875;48.436;10.298;2022-12-07T00:50:50;96226.13;;;3.87;100.00
39141;BME280;24875;48.436;10.298;2022-12-07T00:53:17;96216.09;;;3.83;100.00
39141;BME280;24875;48.436;10.298;2022-12-07T00:55:46;96215.84;;;3.95;100.00
39141;BME280;24875;48.436;10.298;2022-12-07T00:58:12;96221.59;;;3.89;100.00
39141;BME280;24875;48.436;10.298;2022-12-07T01:00:40;96221.03;;;3.95;100.00
39141;BME280;24875;48.436;10.298;2022-12-07T01:03:08;96221.88;;;3.86;100.00
39141;BME280;24875;48.436;10.298;2022-12-07T01:05:35;96227.78;;;3.88;100.00
39141;BME280;24875;48.436;10.298;2022-12-07T01:08:02;96225.84;;;3.90;100.00
39141;BME280;24875;48.436;10.298;2022-12-07T01:10:28;96221.34;;;3.92;100.00
39141;BME280;24875;48.436;10.298;2022-12-07T01:12:58;96225.72;;;4.01;100.00
39141;BME280;24875;48.436;10.298;2022-12-07T01:15:25;96214.88;;;3.96;100.00
39141;BME280;24875;48.436;10.298;2022-12-07T01:17:53;96222.81;;;4.04;100.00
39141;BME280;24875;48.436;10.298;2022-12-07T01:20:19;96215.28;;;4.01;100.00
39141;BME280;24875;48.436;10.298;2022-12-07T01:22:46;96223.78;;;4.03;100.00
39141;BME280;24875;48.436;10.298;2022-12-07T01:25:12;96222.00;;;4.04;100.00
39141;BME280;24875;48.436;10.298;2022-12-07T01:27:39;96224.06;;;4.00;100.00
39141;BME280;24875;48.436;10.298;2022-12-07T01:30:10;96223.25;;;4.09;100.00
39141;BME280;24875;48.436;10.298;2022-12-07T01:32:36;96226.69;;;4.00;100.00
39141;BME280;24875;48.436;10.298;2022-12-07T01:35:04;96225.44;;;4.04;100.00
39141;BME280;24875;48.436;10.298;2022-12-07T01:37:34;96226.13;;;4.06;100.00
39141;BME280;24875;48.436;10.298;2022-12-07T01:40:01;96226.13;;;4.06;100.00
39141;BME280;24875;48.436;10.298;2022-12-07T01:42:28;96226.53;;;4.11;100.00
39141;BME280;24875;48.436;10.298;2022-12-07T01:45:37;96225.44;;;4.23;100.00
39141;BME280;24875;48.436;10.298;2022-12-07T01:48:04;96229.53;;;4.16;100.00
39141;BME280;24875;48.436;10.298;2022-12-07T01:50:32;96234.75;;;4.16;100.00
39141;BME280;24875;48.436;10.298;2022-12-07T01:53:00;96230.94;;;4.20;100.00
39141;BME280;24875;48.436;10.298;2022-12-07T01:55:29;96226.94;;;4.16;100.00
39141;BME280;24875;48.436;10.298;2022-12-07T01:57:56;96222.56;;;4.17;100.00
39141;BME280;24875;48.436;10.298;2022-12-07T02:00:23;96218.97;;;4.08;100.00
39141;BME280;24875;48.436;10.298;2022-12-07T02:02:54;96212.53;;;4.12;100.00
39141;BME280;24875;48.436;10.298;2022-12-07T02:05:23;96223.66;;;4.14;100.00
39141;BME280;24875;48.436;10.298;2022-12-07T02:07:51;96226.94;;;4.16;100.00
39141;BME280;24875;48.436;10.298;2022-12-07T02:10:20;96230.09;;;4.20;100.00
39141;BME280;24875;48.436;10.298;2022-12-07T02:12:50;96225.00;;;4.18;100.00
39141;BME280;24875;48.436;10.298;2022-12-07T02:15:20;96225.00;;;4.18;100.00
39141;BME280;24875;48.436;10.298;2022-12-07T02:17:56;96227.34;;;4.21;100.00
39141;BME280;24875;48.436;10.298;2022-12-07T02:20:30;96223.63;;;4.23;100.00
39141;BME280;24875;48.436;10.298;2022-12-07T02:26:27;96216.78;;;3.94;100.00
39141;BME280;24875;48.436;10.298;2022-12-07T02:29:11;96221.34;;;3.92;100.00
39141;BME280;24875;48.436;10.298;2022-12-07T02:31:43;96214.88;;;3.96;100.00
39141;BME280;24875;48.436;10.298;2022-12-07T02:34:18;96217.19;;;3.99;100.00
39141;BME280;24875;48.436;10.298;2022-12-07T02:36:51;96213.38;;;3.94;100.00
39141;BME280;24875;48.436;10.298;2022-12-07T02:39:25;96218.84;;;4.00;100.00
39141;BME280;24875;48.436;10.298;2022-12-07T02:41:58;96221.03;;;3.95;100.00
39141;BME280;24875;48.436;10.298;2022-12-07T02:44:28;96212.00;;;3.99;100.00
39141;BME280;24875;48.436;10.298;2022-12-07T02:47:01;96218.31;;;4.06;100.00
39141;BME280;24875;48.436;10.298;2022-12-07T02:49:29;96214.19;;;4.04;100.00
39141;BME280;24875;48.436;10.298;2022-12-07T02:51:56;96213.94;;;3.97;100.00
39141;BME280;24875;48.436;10.298;2022-12-07T02:54:22;96210.50;;;3.87;100.00
39141;BME280;24875;48.436;10.298;2022-12-07T02:56:51;96206.78;;;3.99;100.00
39141;BME280;24875;48.436;10.298;2022-12-07T02:59:27;96205.00;;;4.00;100.00
39141;BME280;24875;48.436;10.298;2022-12-07T03:02:06;96196.34;;;3.99;100.00
39141;BME280;24875;48.436;10.298;2022-12-07T03:04:45;96198.94;;;3.99;100.00
39141;BME280;24875;48.436;10.298;2022-12-07T03:07:24;96210.06;;;4.11;100.00
39141;BME280;24875;48.436;10.298;2022-12-07T03:09:58;96205.69;;;4.02;100.00
39141;BME280;24875;48.436;10.298;2022-12-07T03:12:31;96202.13;;;4.03;100.00
39141;BME280;24875;48.436;10.298;2022-12-07T03:15:01;96209.94;;;4.03;100.00
39141;BME280;24875;48.436;10.298;2022-12-07T03:17:32;96201.41;;;4.01;100.00
39141;BME280;24875;48.436;10.298;2022-12-07T03:20:02;96206.78;;;3.99;100.00
39141;BME280;24875;48.436;10.298;2022-12-07T03:22:32;96203.34;;;3.89;100.00
39141;BME280;24875;48.436;10.298;2022-12-07T03:25:04;96203.09;;;3.92;100.00
39141;BME280;24875;48.436;10.298;2022-12-07T03:27:34;96209.38;;;3.99;100.00
39141;BME280;24875;48.436;10.298;2022-12-07T03:30:04;96209.13;;;4.02;100.00
39141;BME280;24875;48.436;10.298;2022-12-07T03:32:36;96202.81;;;3.95;100.00
39141;BME280;24875;48.436;10.298;2022-12-07T03:35:06;96210.06;;;4.01;100.00
39141;BME280;24875;48.436;10.298;2022-12-07T03:37:37;96205.94;;;3.89;100.00
39141;BME280;24875;48.436;10.298;2022-12-07T03:40:11;96208.72;;;3.97;100.00
39141;BME280;24875;48.436;10.298;2022-12-07T03:42:40;96211.72;;;3.93;100.00
39141;BME280;24875;48.436;10.298;2022-12-07T03:45:08;96209.25;;;4.01;100.00
39141;BME280;24875;48.436;10.298;2022-12-07T03:47:42;96206.78;;;4.09;100.00
39141;BME280;24875;48.436;10.298;2022-12-07T03:50:15;96201.00;;;4.05;100.00
39141;BME280;24875;48.436;10.298;2022-12-07T03:52:48;96199.66;;;4.01;100.00
39141;BME280;24875;48.436;10.298;2022-12-07T03:55:20;96201.00;;;4.05;100.00
39141;BME280;24875;48.436;10.298;2022-12-07T03:57:51;96200.47;;;3.92;100.00
39141;BME280;24875;48.436;10.298;2022-12-07T04:00:19;96207.59;;;3.90;100.00
39141;BME280;24875;48.436;10.298;2022-12-07T04:02:51;96209.13;;;4.02;100.00
39141;BME280;24875;48.436;10.298;2022-12-07T04:05:18;96211.03;;;4.00;100.00
39141;BME280;24875;48.436;10.298;2022-12-07T04:07:44;96209.81;;;3.95;100.00
39141;BME280;24875;48.436;10.298;2022-12-07T04:10:11;96207.47;;;4.01;100.00
39141;BME280;24875;48.436;10.298;2022-12-07T04:12:38;96208.56;;;3.99;100.00
39141;BME280;24875;48.436;10.298;2022-12-07T04:15:06;96200.19;;;4.05;100.00
39141;BME280;24875;48.436;10.298;2022-12-07T04:17:33;96195.50;;;4.08;100.00
39141;BME280;24875;48.436;10.298;2022-12-07T04:20:00;96194.53;;;4.19;100.00
39141;BME280;24875;48.436;10.298;2022-12-07T04:22:27;96193.19;;;4.05;100.00
39141;BME280;24875;48.436;10.298;2022-12-07T04:24:54;96200.47;;;3.73;100.00
39141;BME280;24875;48.436;10.298;2022-12-07T04:27:20;96194.44;;;3.92;100.00
39141;BME280;24875;48.436;10.298;2022-12-07T04:29:47;96200.47;;;3.92;100.00
39141;BME280;24875;48.436;10.298;2022-12-07T04:32:13;96196.88;;;3.93;100.00
39141;BME280;24875;48.436;10.298;2022-12-07T04:34:40;96195.28;;;3.92;100.00
39141;BME280;24875;48.436;10.298;2022-12-07T04:37:08;96196.34;;;3.99;100.00
39141;BME280;24875;48.436;10.298;2022-12-07T04:39:34;96190.03;;;3.83;100.00
39141;BME280;24875;48.436;10.298;2022-12-07T04:42:01;96188.28;;;3.83;100.00
39141;BME280;24875;48.436;10.298;2022-12-07T04:44:28;96193.75;;;3.80;100.00
39141;BME280;24875;48.436;10.298;2022-12-07T04:46:55;96194.00;;;3.59;100.00
39141;BME280;24875;48.436;10.298;2022-12-07T04:49:22;96187.72;;;3.80;100.00
39141;BME280;24875;48.436;10.298;2022-12-07T04:51:49;96192.25;;;3.87;100.00
39141;BME280;24875;48.436;10.298;2022-12-07T04:54:18;96192.22;;;3.78;100.00
39141;BME280;24875;48.436;10.298;2022-12-07T04:56:44;96196.34;;;3.80;100.00
39141;BME280;24875;48.436;10.298;2022-12-07T04:59:12;96191.84;;;3.82;100.00
39141;BME280;24875;48.436;10.298;2022-12-07T05:01:39;96193.19;;;3.86;100.00
39141;BME280;24875;48.436;10.298;2022-12-07T05:04:05;96194.84;;;3.87;100.00
39141;BME280;24875;48.436;10.298;2022-12-07T05:06:32;96197.47;;;3.87;100.00
39141;BME280;24875;48.436;10.298;2022-12-07T05:08:59;96190.03;;;3.83;100.00
39141;BME280;24875;48.436;10.298;2022-12-07T05:11:27;96191.97;;;3.90;100.00
39141;BME280;24875;48.436;10.298;2022-12-07T05:14:09;96193.06;;;3.97;100.00
39141;BME280;24875;48.436;10.298;2022-12-07T05:16:36;96197.72;;;3.94;100.00
39141;BME280;24875;48.436;10.298;2022-12-07T05:19:03;96191.28;;;3.88;100.00
39141;BME280;24875;48.436;10.298;2022-12-07T05:21:30;96191.13;;;3.80;100.00
39141;BME280;24875;48.436;10.298;2022-12-07T05:23:56;96189.63;;;3.78;100.00
39141;BME280;24875;48.436;10.298;2022-12-07T05:26:23;96188.41;;;3.72;100.00
39141;BME280;24875;48.436;10.298;2022-12-07T05:28:51;96184.00;;;3.82;100.00
39141;BME280;24875;48.436;10.298;2022-12-07T05:31:18;96187.56;;;3.53;100.00
39141;BME280;24875;48.436;10.298;2022-12-07T05:33:45;96182.91;;;3.57;100.00
39141;BME280;24875;48.436;10.298;2022-12-07T05:36:11;96181.69;;;3.61;100.00
39141;BME280;24875;48.436;10.298;2022-12-07T05:38:38;96189.22;;;3.54;100.00
39141;BME280;24875;48.436;10.298;2022-12-07T05:41:06;96186.88;;;3.51;100.00
39141;BME280;24875;48.436;10.298;2022-12-07T05:43:33;96184.28;;;3.42;100.00
39141;BME280;24875;48.436;10.298;2022-12-07T05:46:01;96186.19;;;3.59;100.00
39141;BME280;24875;48.436;10.298;2022-12-07T05:48:27;96181.41;;;3.54;100.00
39141;BME280;24875;48.436;10.298;2022-12-07T05:50:54;96183.03;;;3.46;100.00
39141;BME280;24875;48.436;10.298;2022-12-07T05:53:20;96185.91;;;3.43;100.00
39141;BME280;24875;48.436;10.298;2022-12-07T05:55:47;96179.88;;;3.42;100.00
39141;BME280;24875;48.436;10.298;2022-12-07T05:58:13;96186.16;;;3.40;100.00
39141;BME280;24875;48.436;10.298;2022-12-07T06:00:58;96190.16;;;3.34;100.00
39141;BME280;24875;48.436;10.298;2022-12-07T06:03:25;96201.56;;;3.43;100.00
39141;BME280;24875;48.436;10.298;2022-12-07T06:05:52;96202.31;;;3.24;100.00
39141;BME280;24875;48.436;10.298;2022-12-07T06:08:19;96192.59;;;3.36;100.00
39141;BME280;24875;48.436;10.298;2022-12-07T06:10:46;96190.56;;;3.49;100.00
39141;BME280;24875;48.436;10.298;2022-12-07T06:13:33;96183.03;;;3.36;100.00
39141;BME280;24875;48.436;10.298;2022-12-07T06:15:59;96192.78;;;3.44;100.00
39141;BME280;24875;48.436;10.298;2022-12-07T06:18:26;96193.31;;;3.47;100.00
39141;BME280;24875;48.436;10.298;2022-12-07T06:20:53;96195.06;;;3.18;100.00
39141;BME280;24875;48.436;10.298;2022-12-07T06:23:19;96199.00;;;3.13;100.00
39141;BME280;24875;48.436;10.298;2022-12-07T06:25:46;96196.28;;;3.14;100.00
39141;BME280;24875;48.436;10.298;2022-12-07T06:28:13;96182.84;;;3.19;100.00
39141;BME280;24875;48.436;10.298;2022-12-07T06:30:39;96190.13;;;3.25;100.00
39141;BME280;24875;48.436;10.298;2022-12-07T06:33:06;96185.75;;;3.16;100.00
39141;BME280;24875;48.436;10.298;2022-12-07T06:35:34;96188.50;;;3.24;100.00
39141;BME280;24875;48.436;10.298;2022-12-07T06:38:00;96186.91;;;3.02;100.00
39141;BME280;24875;48.436;10.298;2022-12-07T06:40:27;96191.75;;;2.77;100.00
39141;BME280;24875;48.436;10.298;2022-12-07T06:42:53;96196.44;;;2.83;100.00
39141;BME280;24875;48.436;10.298;2022-12-07T06:45:20;96191.97;;;2.95;100.00
39141;BME280;24875;48.436;10.298;2022-12-07T06:47:46;96195.81;;;3.00;100.00
39141;BME280;24875;48.436;10.298;2022-12-07T06:50:13;96199.13;;;3.02;100.00
39141;BME280;24875;48.436;10.298;2022-12-07T06:52:41;96199.06;;;2.93;100.00
39141;BME280;24875;48.436;10.298;2022-12-07T06:55:08;96188.78;;;2.82;100.00
39141;BME280;24875;48.436;10.298;2022-12-07T06:57:34;96182.88;;;2.80;100.00
39141;BME280;24875;48.436;10.298;2022-12-07T07:00:01;96191.38;;;2.82;100.00
39141;BME280;24875;48.436;10.298;2022-12-07T07:02:28;96191.13;;;2.85;100.00
39141;BME280;24875;48.436;10.298;2022-12-07T07:04:54;96195.84;;;2.70;100.00
39141;BME280;24875;48.436;10.298;2022-12-07T07:07:21;96192.31;;;2.71;100.00
39141;BME280;24875;48.436;10.298;2022-12-07T07:09:49;96190.66;;;2.70;100.00
39141;BME280;24875;48.436;10.298;2022-12-07T07:12:15;96193.41;;;2.78;100.00
39141;BME280;24875;48.436;10.298;2022-12-07T07:14:42;96207.06;;;2.71;100.00
39141;BME280;24875;48.436;10.298;2022-12-07T07:17:09;96211.34;;;2.81;100.00
39141;BME280;24875;48.436;10.298;2022-12-07T07:19:35;96203.16;;;2.86;100.00
39141;BME280;24875;48.436;10.298;2022-12-07T07:22:02;96209.91;;;2.88;100.00
39141;BME280;24875;48.436;10.298;2022-12-07T07:24:29;96213.88;;;2.92;100.00
39141;BME280;24875;48.436;10.298;2022-12-07T07:26:57;96232.88;;;2.83;100.00
39141;BME280;24875;48.436;10.298;2022-12-07T07:29:23;96232.38;;;2.89;100.00
39141;BME280;24875;48.436;10.298;2022-12-07T07:31:50;96219.56;;;2.77;100.00
39141;BME280;24875;48.436;10.298;2022-12-07T07:34:16;96207.16;;;2.90;100.00
39141;BME280;24875;48.436;10.298;2022-12-07T07:36:43;96204.19;;;3.03;100.00
39141;BME280;24875;48.436;10.298;2022-12-07T07:39:09;96192.41;;;3.09;100.00
39141;BME280;24875;48.436;10.298;2022-12-07T07:41:37;96188.41;;;2.96;100.00
39141;BME280;24875;48.436;10.298;2022-12-07T07:44:05;96187.25;;;3.18;100.00
39141;BME280;24875;48.436;10.298;2022-12-07T07:46:32;96192.75;;;3.25;100.00
39141;BME280;24875;48.436;10.298;2022-12-07T07:48:58;96187.69;;;3.42;100.00
39141;BME280;24875;48.436;10.298;2022-12-07T07:51:25;96197.00;;;3.45;100.00
39141;BME280;24875;48.436;10.298;2022-12-07T07:53:51;96194.81;;;3.50;100.00
39141;BME280;24875;48.436;10.298;2022-12-07T07:56:18;96191.28;;;3.41;100.00
39141;BME280;24875;48.436;10.298;2022-12-07T07:58:45;96196.63;;;3.59;100.00
39141;BME280;24875;48.436;10.298;2022-12-07T08:01:12;96200.72;;;3.61;100.00
39141;BME280;24875;48.436;10.298;2022-12-07T08:03:40;96204.56;;;3.57;100.00
39141;BME280;24875;48.436;10.298;2022-12-07T08:06:06;96198.97;;;3.62;99.98
39141;BME280;24875;48.436;10.298;2022-12-07T08:08:33;96198.13;;;3.89;100.00
39141;BME280;24875;48.436;10.298;2022-12-07T08:11:00;96202.25;;;3.82;99.85
39141;BME280;24875;48.436;10.298;2022-12-07T08:13:26;96207.31;;;3.93;99.44
39141;BME280;24875;48.436;10.298;2022-12-07T08:15:53;96209.78;;;4.04;97.40
39141;BME280;24875;48.436;10.298;2022-12-07T08:18:21;96209.50;;;4.26;95.30
39141;BME280;24875;48.436;10.298;2022-12-07T08:20:48;96209.22;;;4.20;95.05
39141;BME280;24875;48.436;10.298;2022-12-07T08:23:14;96219.38;;;4.32;94.86
39141;BME280;24875;48.436;10.298;2022-12-07T08:25:41;96224.56;;;4.41;94.06
39141;BME280;24875;48.436;10.298;2022-12-07T08:28:07;96229.63;;;4.43;94.90
39141;BME280;24875;48.436;10.298;2022-12-07T08:30:34;96246.56;;;4.29;99.33
39141;BME280;24875;48.436;10.298;2022-12-07T08:33:01;96240.91;;;4.34;99.01
39141;BME280;24875;48.436;10.298;2022-12-07T08:35:28;96242.31;;;4.38;94.81
39141;BME280;24875;48.436;10.298;2022-12-07T08:37:55;96242.44;;;4.08;93.97
39141;BME280;24875;48.436;10.298;2022-12-07T08:40:23;96239.41;;;4.22;94.96
39141;BME280;24875;48.436;10.298;2022-12-07T08:42:50;96241.34;;;4.20;96.23
39141;BME280;24875;48.436;10.298;2022-12-07T08:45:17;96236.66;;;4.23;94.63
39141;BME280;24875;48.436;10.298;2022-12-07T08:47:47;96244.88;;;4.47;93.28
39141;BME280;24875;48.436;10.298;2022-12-07T08:50:16;96247.22;;;4.41;92.55
39141;BME280;24875;48.436;10.298;2022-12-07T08:52:48;96251.75;;;4.39;92.12
39141;BME280;24875;48.436;10.298;2022-12-07T08:55:17;96251.50;;;4.23;90.81
39141;BME280;24875;48.436;10.298;2022-12-07T08:57:43;96249.03;;;4.31;90.52
39141;BME280;24875;48.436;10.298;2022-12-07T09:00:11;96253.41;;;4.40;91.08
39141;BME280;24875;48.436;10.298;2022-12-07T09:02:38;96251.50;;;4.42;91.66
39141;BME280;24875;48.436;10.298;2022-12-07T09:05:05;96247.38;;;4.30;91.40
39141;BME280;24875;48.436;10.298;2022-12-07T09:07:33;96245.56;;;4.40;90.21
39141;BME280;24875;48.436;10.298;2022-12-07T09:10:02;96240.47;;;4.48;90.36
39141;BME280;24875;48.436;10.298;2022-12-07T09:12:29;96248.88;;;4.42;89.74
39141;BME280;24875;48.436;10.298;2022-12-07T09:14:56;96242.13;;;4.49;90.19
39141;BME280;24875;48.436;10.298;2022-12-07T09:17:22;96244.44;;;4.52;89.93
39141;BME280;24875;48.436;10.298;2022-12-07T09:19:49;96238.00;;;4.56;90.73
39141;BME280;24875;48.436;10.298;2022-12-07T09:22:16;96241.69;;;4.63;89.73
39141;BME280;24875;48.436;10.298;2022-12-07T09:24:42;96244.28;;;4.63;89.03
39141;BME280;24875;48.436;10.298;2022-12-07T09:27:12;96244.44;;;4.61;88.41
39141;BME280;24875;48.436;10.298;2022-12-07T09:29:39;96245.53;;;4.59;85.82
39141;BME280;24875;48.436;10.298;2022-12-07T09:32:05;96244.03;;;4.56;85.37
39141;BME280;24875;48.436;10.298;2022-12-07T09:34:32;96241.84;;;4.61;86.64
39141;BME280;24875;48.436;10.298;2022-12-07T09:37:00;96234.66;;;4.73;86.11
39141;BME280;24875;48.436;10.298;2022-12-07T09:39:28;96241.25;;;4.77;84.74
39141;BME280;24875;48.436;10.298;2022-12-07T09:41:56;96237.69;;;4.78;83.22
39141;BME280;24875;48.436;10.298;2022-12-07T09:44:26;96230.50;;;4.80;83.26
39141;BME280;24875;48.436;10.298;2022-12-07T09:46:53;96231.63;;;4.77;82.42
39141;BME280;24875;48.436;10.298;2022-12-07T09:49:23;96225.38;;;4.97;83.59
39141;BME280;24875;48.436;10.298;2022-12-07T09:52:00;96233.97;;;4.80;81.77
39141;BME280;24875;48.436;10.298;2022-12-07T09:54:28;96235.50;;;4.64;81.55
39141;BME280;24875;48.436;10.298;2022-12-07T09:56:55;96223.72;;;4.60;81.20
39141;BME280;24875;48.436;10.298;2022-12-07T09:59:22;96215.59;;;4.63;83.43
39141;BME280;24875;48.436;10.298;2022-12-07T10:01:50;96220.25;;;4.69;83.06
39141;BME280;24875;48.436;10.298;2022-12-07T10:04:19;96216.19;;;4.83;84.09
39141;BME280;24875;48.436;10.298;2022-12-07T10:06:47;96212.81;;;4.74;82.48
39141;BME280;24875;48.436;10.298;2022-12-07T10:09:18;96215.28;;;4.75;80.52
39141;BME280;24875;48.436;10.298;2022-12-07T10:12:02;96203.31;;;4.82;81.47
39141;BME280;24875;48.436;10.298;2022-12-07T10:14:30;96206.06;;;4.81;81.09
39141;BME280;24875;48.436;10.298;2022-12-07T10:16:58;96207.22;;;4.69;80.96
39141;BME280;24875;48.436;10.298;2022-12-07T10:19:27;96205.19;;;4.89;81.17
39141;BME280;24875;48.436;10.298;2022-12-07T10:22:03;96201.78;;;4.80;80.67
39141;BME280;24875;48.436;10.298;2022-12-07T10:24:30;96197.81;;;4.76;81.39
39141;BME280;24875;48.436;10.298;2022-12-07T10:26:57;96209.91;;;4.77;82.03
39141;BME280;24875;48.436;10.298;2022-12-07T10:29:29;96213.47;;;4.85;81.31
39141;BME280;24875;48.436;10.298;2022-12-07T10:32:00;96198.66;;;4.76;82.00
39141;BME280;24875;48.436;10.298;2022-12-07T10:34:28;96202.09;;;4.77;83.08
39141;BME280;24875;48.436;10.298;2022-12-07T10:37:13;96196.44;;;4.81;82.83
39141;BME280;24875;48.436;10.298;2022-12-07T10:39:42;96193.81;;;4.81;84.28
39141;BME280;24875;48.436;10.298;2022-12-07T10:42:17;96192.84;;;4.91;80.79
39141;BME280;24875;48.436;10.298;2022-12-07T10:44:44;96193.69;;;4.82;80.86
39141;BME280;24875;48.436;10.298;2022-12-07T10:47:33;96182.78;;;4.96;79.68
39141;BME280;24875;48.436;10.298;2022-12-07T10:50:27;96175.47;;;5.00;79.36
39141;BME280;24875;48.436;10.298;2022-12-07T10:53:08;96174.66;;;4.99;78.96
39141;BME280;24875;48.436;10.298;2022-12-07T10:55:50;96176.53;;;5.07;80.96
39141;BME280;24875;48.436;10.298;2022-12-07T10:58:34;96170.38;;;5.25;79.56
39141;BME280;24875;48.436;10.298;2022-12-07T11:01:06;96163.00;;;5.21;80.95
39141;BME280;24875;48.436;10.298;2022-12-07T11:03:58;96166.75;;;5.36;80.82
39141;BME280;24875;48.436;10.298;2022-12-07T11:06:33;96168.69;;;5.34;81.26
39141;BME280;24875;48.436;10.298;2022-12-07T11:09:16;96165.28;;;5.50;80.56
39141;BME280;24875;48.436;10.298;2022-12-07T11:11:53;96157.28;;;5.52;79.32
39141;BME280;24875;48.436;10.298;2022-12-07T11:14:29;96159.13;;;5.42;78.40
39141;BME280;24875;48.436;10.298;2022-12-07T11:17:05;96154.06;;;5.41;78.66
39141;BME280;24875;48.436;10.298;2022-12-07T11:19:52;96168.03;;;5.05;79.58
39141;BME280;24875;48.436;10.298;2022-12-07T11:22:31;96152.59;;;5.11;80.20
39141;BME280;24875;48.436;10.298;2022-12-07T11:25:18;96150.56;;;5.32;78.75
39141;BME280;24875;48.436;10.298;2022-12-07T11:27:55;96141.91;;;5.49;77.50
39141;BME280;24875;48.436;10.298;2022-12-07T11:30:29;96149.38;;;5.44;78.49
39141;BME280;24875;48.436;10.298;2022-12-07T11:33:08;96148.19;;;5.39;77.55
39141;BME280;24875;48.436;10.298;2022-12-07T11:35:45;96145.72;;;5.54;77.98
39141;BME280;24875;48.436;10.298;2022-12-07T11:38:19;96142.28;;;5.54;76.55
39141;BME280;24875;48.436;10.298;2022-12-07T11:40:50;96142.72;;;5.32;75.88
39141;BME280;24875;48.436;10.298;2022-12-07T11:43:22;96148.03;;;5.40;76.01
39141;BME280;24875;48.436;10.298;2022-12-07T11:45:56;96139.00;;;5.35;76.06
39141;BME280;24875;48.436;10.298;2022-12-07T11:48:31;96134.00;;;5.41;75.60
39141;BME280;24875;48.436;10.298;2022-12-07T11:51:02;96125.78;;;5.36;74.64
39141;BME280;24875;48.436;10.298;2022-12-07T11:53:33;96126.59;;;5.54;75.32
39141;BME280;24875;48.436;10.298;2022-12-07T11:56:07;96122.13;;;5.64;75.03
39141;BME280;24875;48.436;10.298;2022-12-07T11:58:51;96124.75;;;5.64;73.85
39141;BME280;24875;48.436;10.298;2022-12-07T12:01:35;96115.94;;;5.47;74.28
39141;BME280;24875;48.436;10.298;2022-12-07T12:04:17;96119.41;;;5.56;73.41
39141;BME280;24875;48.436;10.298;2022-12-07T12:06:49;96118.31;;;5.41;74.83
39141;BME280;24875;48.436;10.298;2022-12-07T12:09:19;96119.34;;;5.48;75.41
39141;BME280;24875;48.436;10.298;2022-12-07T12:12:01;96107.03;;;5.75;75.89
39141;BME280;24875;48.436;10.298;2022-12-07T12:14:42;96105.25;;;5.76;74.56
39141;BME280;24875;48.436;10.298;2022-12-07T12:17:36;96104.09;;;5.96;74.17
39141;BME280;24875;48.436;10.298;2022-12-07T12:20:19;96105.31;;;5.84;73.69
39141;BME280;24875;48.436;10.298;2022-12-07T12:22:52;96105.53;;;5.90;74.15
39141;BME280;24875;48.436;10.298;2022-12-07T12:25:23;96107.63;;;5.69;73.48
39141;BME280;24875;48.436;10.298;2022-12-07T12:27:53;96097.16;;;5.87;75.36
39141;BME280;24875;48.436;10.298;2022-12-07T12:30:30;96095.53;;;5.86;73.93
39141;BME280;24875;48.436;10.298;2022-12-07T12:33:03;96089.31;;;5.87;74.66
39141;BME280;24875;48.436;10.298;2022-12-07T12:35:32;96098.38;;;5.92;75.48
39141;BME280;24875;48.436;10.298;2022-12-07T12:38:25;96093.59;;;5.88;73.24
39141;BME280;24875;48.436;10.298;2022-12-07T12:40:52;96092.31;;;5.74;70.99
39141;BME280;24875;48.436;10.298;2022-12-07T12:43:45;96095.63;;;5.76;71.89
39141;BME280;24875;48.436;10.298;2022-12-07T12:46:46;96093.16;;;5.92;73.83
39141;BME280;24875;48.436;10.298;2022-12-07T12:49:34;96089.09;;;5.80;72.91
39141;BME280;24875;48.436;10.298;2022-12-07T12:55:19;96090.06;;;5.97;73.00
39141;BME280;24875;48.436;10.298;2022-12-07T12:57:48;96086.59;;;5.88;73.79
39141;BME280;24875;48.436;10.298;2022-12-07T13:00:34;96087.50;;;6.04;73.97
39141;BME280;24875;48.436;10.298;2022-12-07T13:03:01;96090.00;;;5.89;72.74
39141;BME280;24875;48.436;10.298;2022-12-07T13:05:29;96079.31;;;6.00;73.65
39141;BME280;24875;48.436;10.298;2022-12-07T13:07:59;96077.59;;;5.91;73.49
39141;BME280;24875;48.436;10.298;2022-12-07T13:10:44;96079.97;;;6.02;74.46
39141;BME280;24875;48.436;10.298;2022-12-07T13:13:33;96068.06;;;6.07;74.85
39141;BME280;24875;48.436;10.298;2022-12-07T13:19:00;96066.09;;;5.84;75.21